Time;durP1;ratioP1;P1;durP2;ratioP2;P2;SDS_P1;SDS_P2;PMS_P1;PMS_P2;Temp;Humidity;BMP_temperature;BMP_pressure;BME280_temperature;BME280_humidity;BME280_pressure;Samples;Min_cycle;Max_cycle;Signal;HPM_P1;HPM_P2
2021/05/29 00:01:38;;;;;;;11.50;5.80;;;9.60;97.30;;;;;;5070555;28;20441;-87
2021/05/29 00:04:04;;;;;;;9.20;5.40;;;9.60;97.30;;;;;;5069455;28;20506;-86
2021/05/29 00:06:29;;;;;;;10.83;5.27;;;9.60;97.30;;;;;;5069268;28;20206;-87
2021/05/29 00:08:55;;;;;;;9.17;6.00;;;9.60;97.30;;;;;;5069009;28;20198;-86
2021/05/29 00:11:20;;;;;;;11.30;6.00;;;9.60;97.30;;;;;;5068356;28;20207;-85
2021/05/29 00:13:46;;;;;;;8.87;5.70;;;9.50;97.30;;;;;;5067996;28;20546;-86
2021/05/29 00:16:12;;;;;;;8.37;6.00;;;9.50;97.30;;;;;;5067973;28;20214;-86
2021/05/29 00:18:38;;;;;;;9.00;5.60;;;9.50;97.30;;;;;;5067892;28;20172;-87
2021/05/29 00:21:04;;;;;;;10.60;5.70;;;9.50;97.30;;;;;;5069099;28;20171;-84
2021/05/29 00:29:27;;;;;;;12.73;6.60;;;9.50;97.30;;;;;;5119140;22;20483;-86
2021/05/29 00:32:04;;;;;;;10.93;5.93;;;9.40;97.30;;;;;;5011617;28;20426;-88
2021/05/29 00:34:46;;;;;;;;;;;;;;;;;;;;;
2021/05/29 00:37:37;;;;;;;12.47;6.50;;;9.30;97.30;;;;;;4968097;28;20485;-85
2021/05/29 00:40:47;;;;;;;12.93;6.33;;;9.30;97.30;;;;;;4952526;28;20433;-86
2021/05/29 00:50:12;;;;;;;9.10;6.30;;;9.20;97.30;;;;;;4997339;28;20464;-87
2021/05/29 00:52:38;;;;;;;12.77;6.00;;;9.10;97.30;;;;;;4996229;28;20425;-87
2021/05/29 00:55:08;;;;;;;9.80;6.43;;;9.10;97.30;;;;;;4995697;28;20511;-85
2021/05/29 00:57:36;;;;;;;13.00;5.50;;;9.00;97.30;;;;;;4995894;28;20591;-87
2021/05/29 01:00:04;;;;;;;12.90;6.00;;;9.00;97.30;;;;;;4995258;28;20812;-87
2021/05/29 01:02:30;;;;;;;13.47;6.07;;;8.90;97.30;;;;;;4995162;28;20421;-85
2021/05/29 01:04:55;;;;;;;8.93;5.70;;;8.90;97.30;;;;;;4994376;28;21034;-86
2021/05/29 01:07:21;;;;;;;6.93;5.60;;;8.90;97.30;;;;;;4994380;28;20629;-88
2021/05/29 01:09:46;;;;;;;8.00;5.83;;;8.90;97.30;;;;;;4994519;28;20296;-86
2021/05/29 01:12:17;;;;;;;10.60;6.67;;;8.80;97.30;;;;;;4994152;28;20667;-86
2021/05/29 01:14:55;;;;;;;8.70;6.20;;;8.80;97.30;;;;;;4994105;28;20209;-86
2021/05/29 01:17:21;;;;;;;14.20;6.10;;;8.70;97.30;;;;;;4993806;28;20459;-86
2021/05/29 01:19:47;;;;;;;11.30;6.73;;;8.70;97.30;;;;;;4994235;28;20501;-86
2021/05/29 01:22:13;;;;;;;10.87;6.20;;;8.60;97.30;;;;;;4994489;28;20919;-86
2021/05/29 01:24:39;;;;;;;9.20;5.83;;;8.60;97.30;;;;;;4994631;28;20178;-86
2021/05/29 01:27:06;;;;;;;10.90;7.10;;;8.50;97.30;;;;;;4994761;28;20177;-86
2021/05/29 01:29:34;;;;;;;9.60;6.53;;;8.50;97.30;;;;;;4994659;28;20508;-86
2021/05/29 01:32:05;;;;;;;15.13;8.00;;;8.40;97.30;;;;;;4994545;28;20456;-87
2021/05/29 01:34:34;;;;;;;13.40;7.73;;;8.40;97.30;;;;;;4994609;28;20440;-86
2021/05/29 01:37:04;;;;;;;16.47;8.20;;;8.40;97.30;;;;;;4994494;28;20502;-85
2021/05/29 01:39:30;;;;;;;15.67;7.90;;;8.40;97.30;;;;;;4994623;28;20443;-87
2021/05/29 01:41:57;;;;;;;13.93;8.67;;;8.40;97.30;;;;;;4995025;28;20630;-86
2021/05/29 01:44:26;;;;;;;13.80;8.13;;;8.40;97.30;;;;;;4995294;28;20423;-86
2021/05/29 01:46:53;;;;;;;15.70;8.27;;;8.40;97.30;;;;;;4995052;28;20543;-86
2021/05/29 01:49:20;;;;;;;15.57;8.90;;;8.40;97.30;;;;;;5010060;28;20475;-87
2021/05/29 01:51:45;;;;;;;18.47;9.53;;;8.40;97.30;;;;;;5013801;28;20428;-87
2021/05/29 01:54:15;;;;;;;13.63;8.47;;;8.40;97.30;;;;;;5014478;28;20408;-86
2021/05/29 01:56:41;;;;;;;13.83;8.57;;;8.40;97.30;;;;;;5012942;28;20213;-86
2021/05/29 01:59:07;;;;;;;11.03;7.03;;;8.40;97.30;;;;;;5012081;28;20452;-86
2021/05/29 02:01:33;;;;;;;13.77;8.37;;;8.40;97.30;;;;;;5012928;28;20440;-86
2021/05/29 02:03:58;;;;;;;14.40;8.33;;;8.40;97.30;;;;;;5012887;28;20503;-85
2021/05/29 02:06:23;;;;;;;13.97;8.03;;;8.40;97.30;;;;;;5012518;28;20204;-86
2021/05/29 02:08:49;;;;;;;13.13;8.37;;;8.40;97.30;;;;;;5012700;28;20847;-87
2021/05/29 02:11:14;;;;;;;13.13;8.33;;;8.50;97.30;;;;;;5012755;28;20231;-86
2021/05/29 02:13:41;;;;;;;17.00;9.57;;;8.50;97.30;;;;;;5013045;28;20212;-86
2021/05/29 02:16:09;;;;;;;14.80;8.10;;;8.50;97.30;;;;;;5013212;28;20208;-86
2021/05/29 02:18:35;;;;;;;16.40;9.40;;;8.50;97.30;;;;;;5013248;28;21168;-86
2021/05/29 02:21:03;;;;;;;17.10;10.17;;;8.50;97.30;;;;;;5014620;28;20412;-85
2021/05/29 02:23:45;;;;;;;15.23;9.10;;;8.50;97.30;;;;;;5014393;28;20495;-86
2021/05/29 02:26:14;;;;;;;16.37;9.07;;;8.50;97.30;;;;;;5013301;28;20517;-84
2021/05/29 02:28:42;;;;;;;20.97;10.30;;;8.50;97.30;;;;;;5014462;28;20438;-85
2021/05/29 02:31:09;;;;;;;16.60;10.30;;;8.50;97.30;;;;;;5015267;28;20420;-84
2021/05/29 02:33:36;;;;;;;18.50;10.30;;;8.50;97.30;;;;;;5015703;28;20420;-83
2021/05/29 02:36:03;;;;;;;18.83;9.60;;;8.50;97.30;;;;;;5014697;28;20491;-86
2021/05/29 02:38:29;;;;;;;18.10;10.57;;;8.50;97.30;;;;;;5014081;28;20412;-86
2021/05/29 02:40:56;;;;;;;15.87;9.57;;;8.50;97.30;;;;;;5013394;28;20817;-87
2021/05/29 02:43:22;;;;;;;19.20;10.53;;;8.50;97.30;;;;;;5012613;28;20431;-86
2021/05/29 02:45:47;;;;;;;17.67;9.10;;;8.50;97.30;;;;;;5012301;28;20444;-87
2021/05/29 02:48:14;;;;;;;16.77;9.53;;;8.50;97.30;;;;;;5011877;28;20233;-85
2021/05/29 02:50:41;;;;;;;16.10;9.60;;;8.50;97.30;;;;;;5013342;28;20201;-86
2021/05/29 02:53:08;;;;;;;16.60;9.20;;;8.40;97.30;;;;;;5012272;28;20428;-87
2021/05/29 02:55:33;;;;;;;18.80;10.03;;;8.40;97.30;;;;;;5011878;28;20440;-86
2021/05/29 02:58:00;;;;;;;15.00;9.07;;;8.40;97.30;;;;;;5011797;28;20416;-86
2021/05/29 03:00:29;;;;;;;15.33;9.50;;;8.40;97.30;;;;;;5013086;28;20177;-86
2021/05/29 03:02:57;;;;;;;18.27;10.13;;;8.40;97.30;;;;;;5011672;28;20416;-86
2021/05/29 03:05:25;;;;;;;16.30;8.77;;;8.40;97.30;;;;;;5011658;28;20519;-86
2021/05/29 03:07:59;;;;;;;17.80;8.43;;;8.40;97.30;;;;;;5012130;28;20427;-87
2021/05/29 03:10:53;;;;;;;18.80;9.00;;;8.40;97.30;;;;;;5011728;28;20846;-87
2021/05/29 03:13:42;;;;;;;16.37;8.70;;;8.30;97.30;;;;;;5012565;28;20934;-87
2021/05/29 03:16:12;;;;;;;16.93;8.63;;;8.40;97.30;;;;;;5011097;28;20467;-87
2021/05/29 03:18:37;;;;;;;14.83;9.30;;;8.30;97.30;;;;;;5012237;28;20485;-86
2021/05/29 03:21:03;;;;;;;14.87;8.37;;;8.30;97.30;;;;;;5012635;28;20416;-86
2021/05/29 03:23:28;;;;;;;18.70;9.30;;;8.30;97.30;;;;;;5012782;28;20273;-86
2021/05/29 03:25:56;;;;;;;16.00;9.00;;;8.30;97.30;;;;;;5012713;28;20189;-86
2021/05/29 03:28:22;;;;;;;13.87;8.50;;;8.30;97.30;;;;;;5013086;28;20709;-86
2021/05/29 03:30:50;;;;;;;18.00;9.17;;;8.30;97.30;;;;;;5013079;28;20424;-87
2021/05/29 03:33:23;;;;;;;13.50;7.80;;;8.30;97.30;;;;;;4993680;28;20197;-86
2021/05/29 03:39:18;;;;;;;15.47;8.77;;;8.20;97.30;;;;;;4991513;28;20496;-88
2021/05/29 03:41:43;;;;;;;16.93;9.53;;;8.20;97.30;;;;;;4976175;28;20436;-87
2021/05/29 03:44:09;;;;;;;17.03;9.80;;;8.20;97.30;;;;;;4991683;28;20397;-86
2021/05/29 03:46:34;;;;;;;16.30;8.40;;;8.20;97.30;;;;;;4991902;28;20200;-86
2021/05/29 03:49:00;;;;;;;17.43;8.97;;;8.20;97.30;;;;;;5004240;28;20221;-85
2021/05/29 03:51:25;;;;;;;17.20;8.97;;;8.10;97.30;;;;;;5011566;28;20296;-87
2021/05/29 03:53:51;;;;;;;16.43;8.50;;;8.10;97.30;;;;;;5010884;28;20169;-86
2021/05/29 03:56:16;;;;;;;21.00;9.40;;;8.10;97.30;;;;;;5011137;28;20251;-87
2021/05/29 03:58:42;;;;;;;17.20;9.73;;;8.20;97.30;;;;;;5011153;28;20640;-87
2021/05/29 04:01:08;;;;;;;14.53;7.80;;;8.20;97.30;;;;;;5011587;28;20279;-86
2021/05/29 04:03:33;;;;;;;16.50;10.10;;;8.20;97.30;;;;;;5011969;28;20235;-86
2021/05/29 04:05:59;;;;;;;19.03;9.90;;;8.20;97.30;;;;;;5011730;28;20208;-86
2021/05/29 04:08:24;;;;;;;17.90;9.13;;;8.20;97.30;;;;;;5011583;28;20191;-86
2021/05/29 04:10:50;;;;;;;15.70;8.70;;;8.20;97.30;;;;;;5011935;28;20185;-87
2021/05/29 04:13:16;;;;;;;18.40;10.20;;;8.20;97.30;;;;;;5011436;28;20570;-86
2021/05/29 04:15:42;;;;;;;16.63;9.00;;;8.20;97.30;;;;;;5013368;28;20474;-86
2021/05/29 04:18:07;;;;;;;18.27;9.33;;;8.30;97.30;;;;;;5015146;28;20177;-86
2021/05/29 04:20:33;;;;;;;24.47;9.40;;;8.30;97.30;;;;;;5016245;28;20176;-86
2021/05/29 04:22:59;;;;;;;20.27;9.10;;;8.30;97.30;;;;;;5016677;28;20203;-86
2021/05/29 04:25:28;;;;;;;15.63;8.90;;;8.40;97.30;;;;;;5019175;28;20199;-86
2021/05/29 04:27:54;;;;;;;16.07;9.20;;;8.40;97.30;;;;;;5019186;28;20244;-86
2021/05/29 04:30:22;;;;;;;15.50;9.43;;;8.40;97.30;;;;;;5018654;28;20530;-86
2021/05/29 04:32:48;;;;;;;27.37;9.73;;;8.40;97.30;;;;;;5018233;28;20647;-86
2021/05/29 04:35:15;;;;;;;22.43;9.20;;;8.30;97.30;;;;;;5017907;28;20427;-86
2021/05/29 04:37:42;;;;;;;16.00;9.20;;;8.40;97.30;;;;;;5017520;28;20463;-87
2021/05/29 04:40:09;;;;;;;16.50;9.90;;;8.40;97.30;;;;;;5017689;28;20434;-87
2021/05/29 04:42:36;;;;;;;19.80;9.20;;;8.40;97.30;;;;;;5017783;28;20870;-87
2021/05/29 04:45:02;;;;;;;16.57;9.17;;;8.40;97.30;;;;;;5017794;28;20435;-87
2021/05/29 04:47:28;;;;;;;16.33;9.10;;;8.40;97.30;;;;;;5035274;28;20446;-87
2021/05/29 04:49:53;;;;;;;14.80;8.83;;;8.40;97.30;;;;;;5017429;28;20843;-86
2021/05/29 04:52:20;;;;;;;18.03;9.57;;;8.40;97.30;;;;;;5017431;28;20195;-87
2021/05/29 04:54:46;;;;;;;17.63;9.27;;;8.40;97.30;;;;;;5018093;28;20187;-86
2021/05/29 04:57:11;;;;;;;18.30;10.50;;;8.50;97.30;;;;;;5018643;28;20463;-85
2021/05/29 04:59:37;;;;;;;16.40;9.90;;;8.50;97.30;;;;;;5018638;28;20185;-87
2021/05/29 05:02:03;;;;;;;19.23;9.47;;;8.60;97.30;;;;;;5016558;28;20191;-86
2021/05/29 05:04:28;;;;;;;17.70;9.53;;;8.70;97.30;;;;;;5017767;28;20268;-85
2021/05/29 05:06:54;;;;;;;18.17;9.77;;;8.70;97.30;;;;;;5017643;28;20439;-86
2021/05/29 05:09:19;;;;;;;16.73;8.90;;;8.80;97.30;;;;;;5017526;28;20196;-86
2021/05/29 05:11:44;;;;;;;15.70;9.30;;;8.80;97.30;;;;;;5018313;28;20176;-86
2021/05/29 05:14:21;;;;;;;15.90;9.80;;;8.90;97.30;;;;;;5017928;28;20248;-86
2021/05/29 05:16:47;;;;;;;20.90;9.73;;;9.00;97.30;;;;;;5040631;23;20656;-76
2021/05/29 05:19:13;;;;;;;16.60;8.97;;;9.10;97.30;;;;;;5033285;28;20441;-76
2021/05/29 05:21:39;;;;;;;19.10;10.53;;;9.20;97.30;;;;;;5022282;28;20489;-77
2021/05/29 05:24:05;;;;;;;17.33;10.00;;;9.30;97.30;;;;;;5030949;28;20423;-76
2021/05/29 05:26:31;;;;;;;18.97;10.00;;;9.40;97.30;;;;;;5009992;28;20202;-77
2021/05/29 05:28:58;;;;;;;20.90;10.30;;;9.40;97.30;;;;;;5000368;28;20440;-77
2021/05/29 05:31:24;;;;;;;21.63;9.60;;;9.50;97.30;;;;;;4999354;28;20197;-77
2021/05/29 05:33:51;;;;;;;22.60;11.00;;;9.60;97.30;;;;;;4996202;28;20443;-75
2021/05/29 05:36:18;;;;;;;22.10;11.17;;;9.70;97.30;;;;;;4996507;28;20471;-76
2021/05/29 05:38:45;;;;;;;20.60;10.00;;;9.80;97.30;;;;;;4996672;28;20420;-77
2021/05/29 05:41:13;;;;;;;18.70;10.00;;;9.90;97.30;;;;;;4996059;28;21038;-77
2021/05/29 05:43:44;;;;;;;22.53;10.67;;;10.00;97.30;;;;;;5002693;28;20423;-77
2021/05/29 05:57:37;;;;;;;20.80;9.37;;;10.30;97.30;;;;;;5031111;28;20822;-78
2021/05/29 06:00:31;;;;;;;21.13;10.70;;;10.40;97.30;;;;;;5029660;28;20858;-78
2021/05/29 06:26:29;;;;;;;25.87;11.17;;;11.00;97.30;;;;;;4973541;28;20409;-78
2021/05/29 06:28:55;;;;;;;26.60;11.77;;;11.10;97.30;;;;;;5020138;23;20495;-85
2021/05/29 06:31:21;;;;;;;27.17;11.80;;;11.10;97.30;;;;;;5012417;28;20409;-84
2021/05/29 06:33:46;;;;;;;21.00;12.13;;;11.10;97.30;;;;;;5013637;28;20174;-84
2021/05/29 06:36:11;;;;;;;23.53;12.10;;;11.10;97.30;;;;;;5011928;28;20212;-83
2021/05/29 06:38:37;;;;;;;21.70;12.43;;;11.10;97.30;;;;;;5012625;28;20243;-84
2021/05/29 06:41:03;;;;;;;33.60;13.50;;;11.10;97.30;;;;;;5012264;28;20680;-84
2021/05/29 06:43:28;;;;;;;22.97;11.70;;;11.20;97.30;;;;;;5012481;28;20183;-85
2021/05/29 06:45:54;;;;;;;25.30;12.10;;;11.20;97.30;;;;;;5012990;28;20466;-84
2021/05/29 06:48:21;;;;;;;20.00;11.53;;;11.30;97.30;;;;;;5012702;28;20385;-85
2021/05/29 06:50:53;;;;;;;25.30;13.07;;;11.40;97.30;;;;;;5014388;28;20420;-84
2021/05/29 06:53:25;;;;;;;24.17;12.30;;;11.50;97.30;;;;;;5014026;28;20495;-84
2021/05/29 06:58:50;;;;;;;23.37;12.47;;;11.60;97.30;;;;;;4995366;28;20440;-87
2021/05/29 07:01:28;;;;;;;17.50;10.07;;;11.60;97.30;;;;;;5014188;28;20419;-84
2021/05/29 07:03:54;;;;;;;22.70;12.13;;;11.80;97.30;;;;;;5014269;28;20405;-84
2021/05/29 07:06:21;;;;;;;23.20;12.40;;;11.90;97.30;;;;;;5012933;28;20424;-85
2021/05/29 07:08:47;;;;;;;27.73;13.50;;;12.00;97.30;;;;;;5012205;28;20439;-85
2021/05/29 07:11:13;;;;;;;24.30;12.90;;;12.10;97.30;;;;;;5015011;28;20426;-86
2021/05/29 07:13:39;;;;;;;27.30;13.77;;;12.10;97.30;;;;;;5012416;28;20514;-86
2021/05/29 07:16:05;;;;;;;24.07;12.37;;;12.10;97.30;;;;;;5012139;28;20476;-86
2021/05/29 07:18:33;;;;;;;22.33;13.70;;;12.00;97.30;;;;;;5012945;28;20189;-86
2021/05/29 07:21:00;;;;;;;23.67;12.93;;;12.00;97.30;;;;;;5012913;28;20431;-86
2021/05/29 07:23:26;;;;;;;25.00;13.37;;;11.90;97.30;;;;;;5012387;28;20925;-86
2021/05/29 07:25:52;;;;;;;26.70;13.47;;;11.90;97.30;;;;;;5013049;28;20415;-86
2021/05/29 07:28:18;;;;;;;24.20;14.10;;;11.80;97.30;;;;;;5013332;28;20452;-86
2021/05/29 07:30:43;;;;;;;26.93;14.27;;;11.70;97.30;;;;;;5013210;28;20192;-87
2021/05/29 07:33:09;;;;;;;23.57;13.80;;;11.70;97.30;;;;;;5012828;28;20271;-87
2021/05/29 07:35:35;;;;;;;27.10;13.23;;;11.70;97.30;;;;;;5012060;28;20181;-87
2021/05/29 07:38:01;;;;;;;21.67;13.77;;;11.70;97.30;;;;;;5012610;28;20243;-85
2021/05/29 07:40:27;;;;;;;27.90;13.20;;;11.70;97.30;;;;;;5013391;28;20420;-87
2021/05/29 07:42:52;;;;;;;23.10;11.90;;;11.80;97.30;;;;;;5012144;28;20173;-86
2021/05/29 07:45:18;;;;;;;26.50;11.67;;;12.00;97.30;;;;;;5013701;28;20180;-87
2021/05/29 07:47:44;;;;;;;21.80;11.10;;;12.10;97.30;;;;;;5013368;28;20621;-87
2021/05/29 07:50:11;;;;;;;25.67;11.30;;;12.20;97.30;;;;;;5014235;28;20189;-87
2021/05/29 07:52:37;;;;;;;24.27;13.10;;;12.30;97.30;;;;;;5014856;28;20177;-88
2021/05/29 07:55:05;;;;;;;24.50;10.53;;;12.40;97.30;;;;;;5016601;28;20423;-86
2021/05/29 07:57:32;;;;;;;19.50;10.60;;;12.50;97.30;;;;;;5013840;28;20463;-87
2021/05/29 07:59:58;;;;;;;19.50;10.83;;;12.50;97.30;;;;;;5016207;28;21166;-86
2021/05/29 08:02:24;;;;;;;17.20;9.93;;;12.50;97.30;;;;;;5016605;28;20470;-87
2021/05/29 08:04:50;;;;;;;22.27;10.87;;;12.50;97.30;;;;;;5015993;28;20205;-87
2021/05/29 08:07:15;;;;;;;22.20;10.10;;;12.70;97.30;;;;;;5015922;28;20477;-87
2021/05/29 08:09:41;;;;;;;15.33;8.20;;;12.80;97.30;;;;;;5016300;28;20196;-86
2021/05/29 08:12:07;;;;;;;20.13;9.67;;;12.80;97.30;;;;;;5013883;28;20184;-88
2021/05/29 08:14:34;;;;;;;17.83;9.70;;;12.80;97.30;;;;;;5015484;28;20189;-86
2021/05/29 08:16:59;;;;;;;17.30;8.30;;;12.80;97.30;;;;;;5015873;28;20451;-86
2021/05/29 08:19:25;;;;;;;15.83;7.40;;;12.80;97.30;;;;;;5012251;28;20444;-87
2021/05/29 08:21:51;;;;;;;11.97;7.37;;;12.90;97.30;;;;;;5016409;28;20252;-89
2021/05/29 08:24:17;;;;;;;16.10;9.40;;;13.00;97.30;;;;;;5013237;28;20262;-85
2021/05/29 08:26:43;;;;;;;13.50;7.70;;;13.20;97.30;;;;;;4998725;28;20182;-86
2021/05/29 08:29:13;;;;;;;14.80;8.10;;;13.20;97.30;;;;;;5000066;28;20479;-86
2021/05/29 08:31:39;;;;;;;18.57;6.77;;;13.40;97.30;;;;;;4996549;28;20417;-87
2021/05/29 08:34:08;;;;;;;15.83;7.80;;;13.50;97.30;;;;;;4995647;28;20436;-87
2021/05/29 08:36:33;;;;;;;19.40;8.90;;;13.70;97.30;;;;;;4999331;28;20233;-86
2021/05/29 08:38:58;;;;;;;16.30;8.40;;;13.70;97.30;;;;;;5013524;28;20571;-84
2021/05/29 08:41:25;;;;;;;13.37;7.77;;;13.70;97.30;;;;;;5015078;28;20656;-86
2021/05/29 08:43:50;;;;;;;19.20;9.20;;;13.50;97.30;;;;;;5016418;28;20177;-84
2021/05/29 08:46:16;;;;;;;19.63;8.40;;;13.40;97.30;;;;;;5014159;28;20430;-85
2021/05/29 08:48:42;;;;;;;17.87;9.30;;;13.20;97.30;;;;;;5018551;28;20607;-84
2021/05/29 08:51:14;;;;;;;18.87;8.70;;;13.10;97.30;;;;;;5018407;28;20424;-86
2021/05/29 08:53:51;;;;;;;15.40;8.10;;;13.10;97.30;;;;;;5018313;28;20661;-85
2021/05/29 08:56:18;;;;;;;20.07;8.97;;;13.10;97.30;;;;;;5019294;28;20451;-84
2021/05/29 08:58:46;;;;;;;17.40;9.23;;;13.30;97.30;;;;;;5018439;28;20444;-88
2021/05/29 09:01:12;;;;;;;20.67;9.30;;;13.30;97.30;;;;;;5020999;28;20420;-87
2021/05/29 09:03:45;;;;;;;19.10;8.80;;;13.20;97.30;;;;;;5017598;28;20475;-85
2021/05/29 09:06:13;;;;;;;17.30;8.83;;;13.10;97.30;;;;;;5016723;28;20503;-84
2021/05/29 09:08:50;;;;;;;18.33;8.90;;;13.00;97.30;;;;;;5014628;28;20782;-85
2021/05/29 09:11:37;;;;;;;13.63;7.73;;;13.00;97.30;;;;;;5017096;28;20464;-87
2021/05/29 09:14:26;;;;;;;16.50;8.17;;;13.20;97.30;;;;;;5018976;28;20416;-85
2021/05/29 09:17:24;;;;;;;15.90;8.90;;;13.40;97.30;;;;;;5017086;28;20455;-87
2021/05/29 09:20:09;;;;;;;20.17;8.63;;;13.60;97.30;;;;;;5015329;28;20421;-86
2021/05/29 09:22:40;;;;;;;22.13;9.17;;;13.50;97.30;;;;;;5015614;28;20405;-86
2021/05/29 09:25:14;;;;;;;20.10;8.80;;;13.50;97.30;;;;;;5005039;28;20415;-88
2021/05/29 09:27:58;;;;;;;18.50;8.40;;;13.60;97.30;;;;;;4999464;28;20440;-84
2021/05/29 09:30:48;;;;;;;11.80;7.93;;;13.80;97.30;;;;;;4988000;28;20859;-85
2021/05/29 09:33:16;;;;;;;14.30;6.30;;;14.00;97.30;;;;;;4982688;28;20457;-86
2021/05/29 09:35:46;;;;;;;13.40;7.00;;;14.10;97.30;;;;;;4987228;28;20429;-84
2021/05/29 09:38:12;;;;;;;16.03;6.40;;;14.20;97.30;;;;;;4978899;28;20450;-84
2021/05/29 09:40:38;;;;;;;18.13;8.20;;;14.30;97.30;;;;;;4991560;28;20508;-84
2021/05/29 09:43:08;;;;;;;14.80;7.03;;;14.30;97.30;;;;;;4997544;28;20441;-84
2021/05/29 09:45:34;;;;;;;17.53;7.23;;;14.10;97.30;;;;;;5002181;28;20174;-85
2021/05/29 09:48:26;;;;;;;13.70;7.60;;;14.20;97.30;;;;;;5011855;28;20436;-84
2021/05/29 09:50:59;;;;;;;15.60;7.83;;;14.20;97.30;;;;;;4994643;28;20485;-84
2021/05/29 09:53:27;;;;;;;19.07;7.07;;;14.10;97.30;;;;;;4995183;28;20936;-84
2021/05/29 09:55:53;;;;;;;11.17;6.33;;;14.10;97.30;;;;;;4994759;28;20461;-85
2021/05/29 09:58:18;;;;;;;12.23;6.77;;;14.10;97.30;;;;;;4994963;28;20884;-85
2021/05/29 10:00:50;;;;;;;15.73;6.83;;;14.10;97.30;;;;;;4994043;28;20187;-85
2021/05/29 10:03:16;;;;;;;13.13;7.27;;;14.20;97.30;;;;;;4994056;28;20224;-86
2021/05/29 10:05:47;;;;;;;10.83;6.47;;;14.10;97.30;;;;;;4994157;28;20425;-87
2021/05/29 10:08:14;;;;;;;17.70;7.40;;;14.10;97.30;;;;;;4993857;28;20229;-86
2021/05/29 10:10:40;;;;;;;16.47;7.00;;;14.10;97.30;;;;;;4977576;28;20421;-86
2021/05/29 10:13:06;;;;;;;10.23;5.87;;;14.40;97.30;;;;;;4993840;28;20432;-87
2021/05/29 10:15:32;;;;;;;10.60;6.00;;;14.70;97.30;;;;;;4994772;28;20177;-87
2021/05/29 10:18:02;;;;;;;13.43;6.30;;;15.00;97.30;;;;;;4986683;28;20238;-87
2021/05/29 10:20:28;;;;;;;9.70;6.00;;;15.20;97.20;;;;;;4987540;28;20232;-86
2021/05/29 10:22:54;;;;;;;12.27;6.30;;;15.20;97.30;;;;;;4995346;28;20421;-87
2021/05/29 10:25:21;;;;;;;8.83;5.50;;;15.10;96.70;;;;;;4989548;28;20798;-87
2021/05/29 10:27:52;;;;;;;10.63;5.70;;;15.00;96.20;;;;;;4981950;28;20673;-87
2021/05/29 10:30:19;;;;;;;14.47;6.90;;;15.10;97.10;;;;;;5002699;28;20468;-87
2021/05/29 10:33:10;;;;;;;10.80;6.27;;;15.10;96.70;;;;;;5005461;28;20467;-87
2021/05/29 10:35:38;;;;;;;9.70;6.27;;;15.00;94.10;;;;;;5015109;28;20428;-88
2021/05/29 10:38:03;;;;;;;12.83;5.90;;;15.00;95.80;;;;;;4994552;28;20445;-87
2021/05/29 10:40:31;;;;;;;9.03;6.40;;;15.00;94.00;;;;;;4995948;28;20469;-87
2021/05/29 10:43:03;;;;;;;14.40;7.30;;;15.00;95.50;;;;;;4995295;28;20177;-87
2021/05/29 10:45:29;;;;;;;14.23;7.20;;;14.80;96.30;;;;;;5002800;28;20466;-86
2021/05/29 10:48:12;;;;;;;12.43;7.77;;;14.70;96.10;;;;;;5026693;28;20448;-86
2021/05/29 10:51:12;;;;;;;8.93;6.13;;;14.60;97.10;;;;;;5011050;28;20802;-86
2021/05/29 10:53:39;;;;;;;11.27;6.57;;;14.70;96.30;;;;;;5005466;28;20472;-86
2021/05/29 10:56:16;;;;;;;10.17;5.90;;;14.70;95.80;;;;;;5008549;28;20838;-86
2021/05/29 10:59:18;;;;;;;9.70;5.03;;;14.60;95.30;;;;;;5034199;23;20497;-83
2021/05/29 11:01:44;;;;;;;9.90;5.40;;;14.70;95.40;;;;;;5057055;28;21039;-82
2021/05/29 11:04:22;;;;;;;9.87;5.73;;;14.80;94.90;;;;;;5040898;28;20477;-83
2021/05/29 11:06:51;;;;;;;7.13;4.80;;;14.80;94.80;;;;;;5046290;28;20468;-83
2021/05/29 11:09:29;;;;;;;10.10;5.30;;;14.90;94.60;;;;;;5033382;28;20429;-83
2021/05/29 11:11:57;;;;;;;10.60;5.10;;;15.00;93.40;;;;;;5017420;28;20451;-81
2021/05/29 11:14:51;;;;;;;10.80;5.40;;;15.40;94.10;;;;;;5016345;28;20506;-83
2021/05/29 11:17:21;;;;;;;7.87;5.03;;;15.80;93.60;;;;;;5009269;28;20460;-84
2021/05/29 11:20:19;;;;;;;7.70;4.87;;;16.10;92.20;;;;;;5017314;28;20428;-81
2021/05/29 11:22:50;;;;;;;8.87;5.60;;;16.20;92.60;;;;;;5025174;28;20423;-83
2021/05/29 11:25:21;;;;;;;11.90;5.13;;;16.00;90.10;;;;;;5038728;28;20423;-83
2021/05/29 11:27:48;;;;;;;11.97;6.70;;;15.90;90.40;;;;;;5026875;28;20596;-82
2021/05/29 11:30:23;;;;;;;10.80;5.80;;;15.80;91.60;;;;;;5028763;28;20435;-83
2021/05/29 11:35:36;;;;;;;8.23;5.93;;;15.60;91.80;;;;;;5021352;28;20826;-84
2021/05/29 11:38:21;;;;;;;13.03;6.17;;;15.70;91.80;;;;;;5021706;28;20478;-81
2021/05/29 11:40:59;;;;;;;12.83;6.43;;;15.70;93.20;;;;;;5024043;28;20447;-80
2021/05/29 11:43:51;;;;;;;9.50;6.37;;;15.60;93.30;;;;;;5014742;28;20568;-83
2021/05/29 11:46:27;;;;;;;8.77;5.77;;;15.60;93.50;;;;;;5010487;28;20471;-81
2021/05/29 11:48:58;;;;;;;11.27;6.13;;;15.60;91.70;;;;;;5023729;28;20423;-83
2021/05/29 11:51:32;;;;;;;16.37;5.40;;;15.60;91.20;;;;;;5014444;28;20546;-82
2021/05/29 11:54:10;;;;;;;8.20;4.70;;;15.80;90.50;;;;;;5015167;28;20499;-82
2021/05/29 11:56:39;;;;;;;8.47;5.40;;;16.10;92.30;;;;;;5014718;28;20459;-77
2021/05/29 11:59:07;;;;;;;10.80;5.87;;;16.40;90.50;;;;;;5015559;28;20464;-82
2021/05/29 12:01:35;;;;;;;9.47;5.30;;;16.50;90.10;;;;;;5015286;28;20675;-80
2021/05/29 12:04:05;;;;;;;11.80;5.50;;;16.50;89.20;;;;;;5029611;28;20419;-83
2021/05/29 12:06:39;;;;;;;11.47;5.73;;;16.50;89.90;;;;;;5035542;28;20415;-80
2021/05/29 12:09:21;;;;;;;7.97;4.27;;;16.40;88.90;;;;;;5037514;28;20976;-82
2021/05/29 12:11:51;;;;;;;10.27;5.03;;;16.40;89.60;;;;;;5022898;28;20447;-83
2021/05/29 12:14:24;;;;;;;11.00;4.80;;;16.50;88.90;;;;;;5025251;28;20774;-80
2021/05/29 12:16:59;;;;;;;9.50;5.10;;;16.60;88.70;;;;;;5023239;28;20460;-81
2021/05/29 12:19:38;;;;;;;6.77;4.70;;;16.60;87.90;;;;;;5022719;28;20412;-82
2021/05/29 12:22:04;;;;;;;9.00;6.63;;;16.60;88.70;;;;;;5023470;28;20514;-78
2021/05/29 12:24:37;;;;;;;10.73;6.40;;;16.50;89.90;;;;;;5020331;28;20946;-81
2021/05/29 12:27:03;;;;;;;11.40;6.50;;;16.40;89.10;;;;;;5021640;28;20169;-81
2021/05/29 12:29:29;;;;;;;9.03;5.77;;;16.60;89.40;;;;;;5023141;28;20429;-82
2021/05/29 12:34:49;;;;;;;11.80;6.80;;;17.00;90.00;;;;;;5019368;28;20588;-76
2021/05/29 12:37:16;;;;;;;11.27;6.80;;;17.30;88.50;;;;;;5013336;28;20463;-78
2021/05/29 12:40:03;;;;;;;14.33;7.27;;;17.40;88.00;;;;;;5009925;28;20447;-78
2021/05/29 12:42:45;;;;;;;11.63;6.40;;;17.20;87.40;;;;;;4993137;28;20488;-77
2021/05/29 12:45:23;;;;;;;10.10;5.73;;;17.20;86.90;;;;;;5007590;28;20428;-76
2021/05/29 12:48:00;;;;;;;10.00;6.33;;;17.10;88.00;;;;;;5009784;28;20419;-78
2021/05/29 12:50:26;;;;;;;15.57;6.93;;;17.10;87.60;;;;;;5017752;28;20472;-79
2021/05/29 12:52:52;;;;;;;11.63;7.33;;;17.20;89.50;;;;;;5016642;28;20899;-78
2021/05/29 12:55:21;;;;;;;12.87;6.93;;;17.30;89.40;;;;;;5016234;28;20188;-78
2021/05/29 12:57:46;;;;;;;15.30;7.27;;;17.10;87.90;;;;;;5015760;28;20826;-76
2021/05/29 13:00:27;;;;;;;11.70;6.37;;;17.20;88.90;;;;;;5015738;28;20458;-79
2021/05/29 13:09:33;;;;;;;9.23;5.70;;;17.50;86.00;;;;;;5033570;28;20454;-79
2021/05/29 13:12:12;;;;;;;13.23;6.57;;;17.40;86.80;;;;;;4976623;28;20443;-78
2021/05/29 13:14:38;;;;;;;10.63;6.40;;;17.30;86.90;;;;;;5017193;28;20447;-79
2021/05/29 13:17:05;;;;;;;8.90;5.80;;;17.00;88.40;;;;;;5015293;28;20483;-79
2021/05/29 13:20:03;;;;;;;9.37;6.03;;;16.80;88.60;;;;;;5017306;28;20555;-79
2021/05/29 13:22:38;;;;;;;14.17;5.80;;;16.80;90.40;;;;;;5018128;28;20436;-79
2021/05/29 13:25:03;;;;;;;11.80;6.50;;;17.00;88.50;;;;;;5019717;28;20777;-77
2021/05/29 13:27:30;;;;;;;10.03;5.93;;;17.10;88.40;;;;;;5018792;28;20435;-79
2021/05/29 13:30:02;;;;;;;13.03;6.50;;;17.30;87.30;;;;;;5020816;28;20181;-80
2021/05/29 13:32:28;;;;;;;11.57;6.70;;;17.50;87.20;;;;;;5020688;28;20447;-78
2021/05/29 13:34:56;;;;;;;14.60;5.83;;;17.80;87.10;;;;;;5019761;28;20423;-75
2021/05/29 13:37:21;;;;;;;10.80;5.83;;;18.10;86.50;;;;;;5018248;28;20200;-79
2021/05/29 13:39:52;;;;;;;8.77;5.90;;;18.20;84.80;;;;;;5018250;28;20965;-78
2021/05/29 13:42:18;;;;;;;8.20;4.97;;;18.30;84.40;;;;;;5001270;28;20220;-78
2021/05/29 13:44:45;;;;;;;7.37;5.43;;;18.40;84.70;;;;;;5006857;28;20488;-78
2021/05/29 13:47:16;;;;;;;7.20;5.77;;;18.40;82.80;;;;;;5012356;28;20439;-79
2021/05/29 13:50:06;;;;;;;12.83;6.90;;;18.30;84.50;;;;;;5018399;28;20474;-80
2021/05/29 13:52:32;;;;;;;7.30;5.00;;;17.80;85.80;;;;;;5009220;28;20439;-80
2021/05/29 13:54:57;;;;;;;8.60;5.73;;;17.70;85.90;;;;;;5019759;28;20418;-82
2021/05/29 13:57:28;;;;;;;8.33;5.57;;;17.90;86.80;;;;;;5019797;28;20204;-80
2021/05/29 13:59:53;;;;;;;9.13;5.33;;;18.10;84.80;;;;;;5037387;28;20176;-81